Time;durP1;ratioP1;P1;durP2;ratioP2;P2;SDS_P1;SDS_P2;PMS_P1;PMS_P2;Temp;Humidity;BMP_temperature;BMP_pressure;BME280_temperature;BME280_humidity;BME280_pressure;Samples;Min_cycle;Max_cycle;Signal;HPM_P1;HPM_P2
2023/06/11 00:01:29;;;;;;;14.35;11.90;;;;;;;13.47;100.00;98684.03;4157660;28;20456;-71
2023/06/11 00:03:33;;;;;;;13.80;12.02;;;;;;;13.46;100.00;98692.78;4156609;28;20351;-71
2023/06/11 00:05:35;;;;;;;12.25;10.43;;;;;;;13.44;100.00;98693.19;4157160;28;20490;-71
2023/06/11 00:07:38;;;;;;;13.80;11.57;;;;;;;13.44;100.00;98689.59;4157134;28;20041;-71
2023/06/11 00:09:39;;;;;;;15.13;12.25;;;;;;;13.41;100.00;98691.19;4156919;28;20042;-71
2023/06/11 00:11:41;;;;;;;15.80;12.27;;;;;;;13.45;100.00;98689.22;4156656;28;20055;-70
2023/06/11 00:13:41;;;;;;;15.82;12.48;;;;;;;13.46;100.00;98690.78;4156753;28;20045;-71
2023/06/11 00:15:42;;;;;;;13.35;11.32;;;;;;;13.46;100.00;98699.13;4157147;28;20075;-71
2023/06/11 00:17:42;;;;;;;13.80;12.15;;;;;;;13.43;100.00;98691.59;4157528;28;20053;-71
2023/06/11 00:19:43;;;;;;;12.77;11.43;;;;;;;13.39;100.00;98684.41;4156778;28;20398;-71
2023/06/11 00:21:45;;;;;;;13.57;12.18;;;;;;;13.28;100.00;98691.94;4156872;28;20053;-71
2023/06/11 00:23:46;;;;;;;13.15;11.70;;;;;;;13.11;100.00;98688.66;4156029;28;20485;-71
2023/06/11 00:25:46;;;;;;;13.75;11.32;;;;;;;13.07;100.00;98692.59;4156194;28;20045;-71
2023/06/11 00:27:46;;;;;;;14.43;11.88;;;;;;;12.99;100.00;98705.66;4157192;28;20081;-71
2023/06/11 00:29:47;;;;;;;14.13;11.38;;;;;;;12.89;100.00;98707.16;4156572;28;20128;-71
2023/06/11 00:31:47;;;;;;;13.20;11.57;;;;;;;12.89;100.00;98706.38;4157133;28;20041;-71
2023/06/11 00:33:47;;;;;;;13.55;11.43;;;;;;;12.84;100.00;98699.22;4156255;28;20053;-71
2023/06/11 00:35:47;;;;;;;13.25;11.85;;;;;;;12.91;100.00;98710.38;4156714;28;20067;-71
2023/06/11 00:37:49;;;;;;;13.38;10.50;;;;;;;12.90;100.00;98700.44;4157100;28;20047;-71
2023/06/11 00:39:50;;;;;;;16.52;12.10;;;;;;;12.93;100.00;98713.56;4156504;28;20042;-71
2023/06/11 00:41:51;;;;;;;15.77;12.70;;;;;;;12.89;100.00;98701.63;4156417;28;20065;-71
2023/06/11 00:43:56;;;;;;;13.60;12.00;;;;;;;12.86;100.00;98709.94;4156017;28;20048;-71
2023/06/11 00:45:56;;;;;;;12.55;11.25;;;;;;;12.81;100.00;98707.50;4156351;28;20553;-71
2023/06/11 00:47:57;;;;;;;16.40;13.05;;;;;;;12.70;100.00;98710.22;4156870;28;20080;-71
2023/06/11 00:49:59;;;;;;;14.32;12.05;;;;;;;12.66;100.00;98709.44;4155812;28;20053;-71
2023/06/11 00:52:00;;;;;;;13.90;12.10;;;;;;;12.62;100.00;98706.63;4156360;28;20132;-71
2023/06/11 00:54:00;;;;;;;13.02;11.18;;;;;;;12.65;100.00;98711.38;4155916;28;20092;-71
2023/06/11 00:56:00;;;;;;;13.90;12.30;;;;;;;12.66;100.00;98717.75;4155780;28;20046;-71
2023/06/11 00:58:02;;;;;;;16.00;12.20;;;;;;;12.63;100.00;98712.97;4156820;28;20041;-71
2023/06/11 01:00:07;;;;;;;13.80;11.63;;;;;;;12.68;100.00;98720.13;4156201;28;20037;-71
2023/06/11 01:02:18;;;;;;;14.75;12.68;;;;;;;12.72;100.00;98715.41;4156409;28;20037;-71
2023/06/11 01:04:23;;;;;;;14.52;12.82;;;;;;;12.71;100.00;98713.81;4155838;28;20051;-71
2023/06/11 01:06:28;;;;;;;15.57;13.35;;;;;;;12.69;100.00;98718.94;4156103;28;20132;-71
2023/06/11 01:08:34;;;;;;;13.07;11.73;;;;;;;12.64;100.00;98725.66;4156284;28;20052;-71
2023/06/11 01:10:35;;;;;;;18.73;13.65;;;;;;;12.54;100.00;98718.84;4155126;28;20072;-71
2023/06/11 01:12:35;;;;;;;15.18;12.63;;;;;;;12.50;100.00;98726.34;4155801;28;20045;-71
2023/06/11 01:14:36;;;;;;;15.10;11.88;;;;;;;12.48;100.00;98728.69;4156744;28;20041;-71
2023/06/11 01:17:05;;;;;;;14.23;12.50;;;;;;;12.44;100.00;98724.31;4156098;28;20037;-71
2023/06/11 01:19:39;;;;;;;14.57;11.57;;;;;;;12.41;100.00;98728.66;4155950;28;20056;-72
2023/06/11 01:21:46;;;;;;;16.27;12.98;;;;;;;12.37;100.00;98723.06;4145257;28;20037;-72
2023/06/11 01:24:11;;;;;;;13.75;11.85;;;;;;;12.37;100.00;98725.06;4155141;28;20080;-72
2023/06/11 01:26:28;;;;;;;15.38;12.15;;;;;;;12.32;100.00;98728.16;4155009;28;20046;-71
2023/06/11 01:28:31;;;;;;;16.52;12.45;;;;;;;12.30;100.00;98730.53;4154376;28;20057;-72
2023/06/11 01:30:33;;;;;;;15.07;12.00;;;;;;;12.26;100.00;98736.06;4157949;28;20513;-72
2023/06/11 01:32:36;;;;;;;15.00;11.90;;;;;;;12.28;100.00;98735.69;4155338;28;20041;-71
2023/06/11 01:34:41;;;;;;;13.40;11.38;;;;;;;12.26;100.00;98732.50;4155344;28;20042;-71
2023/06/11 01:36:41;;;;;;;18.73;13.65;;;;;;;12.20;100.00;98734.03;4156035;28;20079;-72
2023/06/11 01:38:42;;;;;;;13.50;12.00;;;;;;;12.14;100.00;98739.13;4156087;28;20203;-71
2023/06/11 01:40:42;;;;;;;13.05;11.52;;;;;;;12.10;100.00;98729.97;4155998;28;20493;-71
2023/06/11 01:42:42;;;;;;;15.98;11.88;;;;;;;12.06;100.00;98729.94;4155162;28;20045;-71
2023/06/11 01:44:43;;;;;;;13.65;12.15;;;;;;;12.04;100.00;98728.72;4156466;28;20045;-71
2023/06/11 01:46:43;;;;;;;15.55;12.65;;;;;;;12.02;100.00;98733.88;4156067;28;20041;-71
2023/06/11 01:48:44;;;;;;;16.35;14.00;;;;;;;12.01;100.00;98723.94;4156158;28;20136;-71
2023/06/11 01:50:44;;;;;;;15.90;12.25;;;;;;;12.04;100.00;98728.72;4156691;28;20041;-72
2023/06/11 01:52:45;;;;;;;16.05;12.95;;;;;;;12.05;100.00;98731.09;4154596;28;20702;-72
2023/06/11 01:54:45;;;;;;;14.00;12.50;;;;;;;12.04;100.00;98729.53;4155911;28;20053;-71
2023/06/11 01:56:46;;;;;;;14.13;12.63;;;;;;;12.02;100.00;98733.88;4156127;28;20045;-71
2023/06/11 01:58:47;;;;;;;14.07;12.07;;;;;;;11.95;100.00;98728.25;4155926;28;20038;-71
2023/06/11 02:00:47;;;;;;;15.85;12.98;;;;;;;11.91;100.00;98730.16;4155853;28;20749;-71
2023/06/11 02:02:48;;;;;;;14.77;12.65;;;;;;;11.86;100.00;98730.53;4153305;28;20119;-72
2023/06/11 02:04:48;;;;;;;17.90;13.57;;;;;;;11.85;100.00;98726.97;4156115;28;20136;-71
2023/06/11 02:06:49;;;;;;;16.13;13.15;;;;;;;11.82;100.00;98727.69;4155835;28;20429;-71
2023/06/11 02:08:49;;;;;;;16.55;12.30;;;;;;;11.86;100.00;98733.31;4155575;28;20046;-71
2023/06/11 02:10:49;;;;;;;13.00;11.45;;;;;;;11.83;100.00;98729.28;4156021;28;20045;-71
2023/06/11 02:12:50;;;;;;;13.27;11.82;;;;;;;11.77;100.00;98731.59;4154812;28;20354;-71
2023/06/11 02:14:50;;;;;;;14.20;11.88;;;;;;;11.75;100.00;98722.03;4155940;28;20095;-72
2023/06/11 02:16:51;;;;;;;15.93;13.15;;;;;;;11.70;100.00;98725.19;4155610;28;20073;-71
2023/06/11 02:18:51;;;;;;;14.13;11.75;;;;;;;11.67;100.00;98721.19;4156288;28;20490;-71
2023/06/11 02:20:51;;;;;;;15.30;12.25;;;;;;;11.70;100.00;98733.50;4155641;28;20053;-71
2023/06/11 02:22:52;;;;;;;14.35;11.77;;;;;;;11.66;100.00;98729.88;4157542;28;20053;-71
2023/06/11 02:24:52;;;;;;;15.02;13.07;;;;;;;11.57;100.00;98729.38;4158946;28;20176;-72
2023/06/11 02:26:52;;;;;;;15.88;13.25;;;;;;;11.42;100.00;98731.19;4158703;28;20127;-72
2023/06/11 02:28:52;;;;;;;20.58;14.52;;;;;;;11.35;100.00;98733.88;4157459;28;20281;-71
2023/06/11 02:30:53;;;;;;;16.80;13.13;;;;;;;11.32;100.00;98743.72;4158698;28;20047;-71
2023/06/11 02:32:53;;;;;;;14.82;12.48;;;;;;;11.27;100.00;98730.22;4157950;28;20045;-71
2023/06/11 02:34:53;;;;;;;17.13;13.82;;;;;;;11.25;100.00;98738.91;4158274;28;20042;-72
2023/06/11 02:36:54;;;;;;;14.05;12.18;;;;;;;11.22;100.00;98728.56;4158698;28;20063;-71
2023/06/11 02:38:54;;;;;;;15.48;12.40;;;;;;;11.28;100.00;98742.91;4158645;28;20044;-71
2023/06/11 02:40:55;;;;;;;15.93;12.82;;;;;;;11.25;100.00;98741.69;4158401;28;20453;-71
2023/06/11 02:42:55;;;;;;;14.43;11.80;;;;;;;11.28;100.00;98736.56;4157873;28;20148;-71
2023/06/11 02:44:55;;;;;;;15.38;12.93;;;;;;;11.32;100.00;98737.38;4158393;28;20045;-71
2023/06/11 02:46:56;;;;;;;16.33;12.90;;;;;;;11.30;100.00;98736.97;4158372;28;20355;-71
2023/06/11 02:48:56;;;;;;;16.60;12.55;;;;;;;11.29;100.00;98732.59;4158743;28;20045;-71
2023/06/11 02:50:57;;;;;;;15.30;12.85;;;;;;;11.27;100.00;98732.19;4158082;28;20096;-71
2023/06/11 02:52:57;;;;;;;14.43;11.98;;;;;;;11.29;100.00;98733.41;4157376;28;20033;-71
2023/06/11 02:54:58;;;;;;;15.18;11.80;;;;;;;11.23;100.00;98740.44;4158161;28;20037;-71
2023/06/11 02:56:58;;;;;;;15.75;12.85;;;;;;;11.23;100.00;98741.25;4158627;28;20033;-71
2023/06/11 02:58:58;;;;;;;15.48;12.07;;;;;;;11.14;100.00;98737.97;4157851;28;20037;-71
2023/06/11 03:00:58;;;;;;;15.85;13.30;;;;;;;11.11;100.00;98740.69;4157993;28;20048;-71
2023/06/11 03:02:59;;;;;;;16.13;12.05;;;;;;;11.08;100.00;98749.72;4157802;28;20042;-71
2023/06/11 03:04:59;;;;;;;21.15;13.00;;;;;;;11.08;100.00;98747.75;4156395;28;20507;-71
2023/06/11 03:07:00;;;;;;;15.93;12.07;;;;;;;11.09;100.00;98743.84;4157087;28;20128;-71
2023/06/11 03:09:00;;;;;;;15.07;12.65;;;;;;;11.09;100.00;98743.84;4157424;28;20041;-71
2023/06/11 03:11:00;;;;;;;14.02;12.27;;;;;;;11.05;100.00;98740.22;4157793;28;20389;-71
2023/06/11 03:13:00;;;;;;;17.05;13.70;;;;;;;11.03;100.00;98745.34;4155336;28;20045;-71
2023/06/11 03:15:02;;;;;;;17.40;12.18;;;;;;;11.02;100.00;98752.03;4157274;28;20042;-71
2023/06/11 03:17:02;;;;;;;16.08;12.57;;;;;;;11.01;100.00;98752.44;4157376;28;20482;-71
2023/06/11 03:19:02;;;;;;;13.80;12.07;;;;;;;11.04;100.00;98748.91;4155722;28;20098;-71
2023/06/11 03:21:03;;;;;;;13.35;11.68;;;;;;;11.09;100.00;98754.91;4155877;28;20025;-71
2023/06/11 03:23:03;;;;;;;14.70;12.50;;;;;;;11.13;100.00;98750.22;4156747;28;20068;-71
2023/06/11 03:25:04;;;;;;;14.68;12.38;;;;;;;11.14;100.00;98757.34;4155834;28;20711;-71
2023/06/11 03:27:05;;;;;;;15.40;12.20;;;;;;;11.12;100.00;98765.22;4157522;28;20049;-71
2023/06/11 03:29:06;;;;;;;15.35;12.93;;;;;;;11.08;100.00;98758.03;4157434;28;20084;-71
2023/06/11 03:31:06;;;;;;;15.20;12.20;;;;;;;11.09;100.00;98766.00;4158153;28;20046;-71
2023/06/11 03:33:06;;;;;;;16.42;12.55;;;;;;;11.11;100.00;98760.88;4156172;28;20056;-71
2023/06/11 03:35:07;;;;;;;16.75;13.23;;;;;;;11.11;100.00;98757.31;4157131;28;20506;-71
2023/06/11 03:37:07;;;;;;;18.00;14.07;;;;;;;11.06;100.00;98758.41;4157736;28;20506;-71
2023/06/11 03:39:07;;;;;;;17.05;12.93;;;;;;;11.03;100.00;98763.91;4157708;28;20037;-71
2023/06/11 03:41:10;;;;;;;19.45;13.05;;;;;;;10.99;100.00;98761.09;4157528;28;20381;-71
2023/06/11 03:43:10;;;;;;;17.05;13.60;;;;;;;10.95;100.00;98758.28;4156786;28;20060;-71
2023/06/11 03:45:10;;;;;;;16.55;12.82;;;;;;;10.99;100.00;98758.31;4157821;28;20054;-72
2023/06/11 03:47:10;;;;;;;17.83;13.18;;;;;;;11.02;100.00;98757.59;4156844;28;20053;-71
2023/06/11 03:49:11;;;;;;;17.67;12.93;;;;;;;11.08;100.00;98758.03;4157392;28;20051;-71
2023/06/11 03:51:11;;;;;;;17.85;13.63;;;;;;;11.09;100.00;98766.00;4157934;28;20053;-71
2023/06/11 03:53:11;;;;;;;17.13;13.40;;;;;;;11.14;100.00;98760.13;4155899;28;20037;-71
2023/06/11 03:55:12;;;;;;;15.05;13.05;;;;;;;11.17;100.00;98762.16;4157361;28;20152;-71
2023/06/11 03:57:13;;;;;;;15.60;12.30;;;;;;;11.23;100.00;98760.63;4159334;28;20051;-71
2023/06/11 03:59:13;;;;;;;19.63;13.32;;;;;;;11.26;100.00;98764.63;4157504;28;20489;-71
2023/06/11 04:01:14;;;;;;;18.17;13.30;;;;;;;11.33;100.00;98764.72;4156489;28;20049;-71
2023/06/11 04:03:14;;;;;;;18.63;14.15;;;;;;;11.34;100.00;98760.00;4156240;28;20448;-71
2023/06/11 04:05:14;;;;;;;15.27;13.38;;;;;;;11.35;100.00;98772.66;4157140;28;20052;-71
2023/06/11 04:07:15;;;;;;;16.15;12.75;;;;;;;11.35;100.00;98770.69;4156915;28;20140;-71
2023/06/11 04:09:15;;;;;;;20.27;13.60;;;;;;;11.42;100.00;98772.72;4157043;28;20069;-71
2023/06/11 04:11:15;;;;;;;13.60;12.15;;;;;;;11.49;100.00;98761.75;4157485;28;20521;-71
2023/06/11 04:13:16;;;;;;;16.85;14.10;;;;;;;11.57;100.00;98766.19;4155982;28;20059;-71
2023/06/11 04:15:16;;;;;;;17.45;13.48;;;;;;;11.69;100.00;98776.25;4157262;28;20158;-71
2023/06/11 04:17:16;;;;;;;16.77;13.82;;;;;;;11.71;100.00;98769.16;4156961;28;20057;-71
2023/06/11 04:19:18;;;;;;;14.55;12.88;;;;;;;11.72;100.00;98770.75;4156563;28;20041;-71
2023/06/11 04:21:18;;;;;;;18.17;14.00;;;;;;;11.75;100.00;98775.53;4157010;28;20072;-72
2023/06/11 04:23:20;;;;;;;18.95;13.07;;;;;;;11.75;100.00;98778.31;4155767;28;20448;-71
2023/06/11 04:25:20;;;;;;;17.40;12.40;;;;;;;11.80;100.00;98783.53;4157168;28;20386;-71
2023/06/11 04:27:20;;;;;;;15.63;12.95;;;;;;;11.88;100.00;98778.06;4156768;28;20049;-71
2023/06/11 04:29:22;;;;;;;16.30;13.23;;;;;;;11.93;100.00;98778.53;4156611;28;20041;-71
2023/06/11 04:31:27;;;;;;;13.93;12.23;;;;;;;12.06;100.00;98781.81;4156945;28;20049;-71
2023/06/11 04:33:36;;;;;;;17.38;13.05;;;;;;;12.15;100.00;98779.53;4155913;28;20034;-71
2023/06/11 04:35:37;;;;;;;14.15;12.38;;;;;;;12.27;100.00;98778.47;4157192;28;20166;-71
2023/06/11 04:37:39;;;;;;;15.60;12.52;;;;;;;12.40;100.00;98782.53;4156682;28;20045;-71
2023/06/11 04:39:40;;;;;;;14.05;12.43;;;;;;;12.49;100.00;98776.69;4156561;28;20073;-71
2023/06/11 04:41:41;;;;;;;14.40;12.20;;;;;;;12.61;100.00;98781.94;4156393;28;20036;-71
2023/06/11 04:43:42;;;;;;;15.25;12.48;;;;;;;12.73;100.00;98773.31;4156223;28;20091;-71
2023/06/11 04:45:42;;;;;;;15.23;13.23;;;;;;;12.84;100.00;98785.31;4155159;28;20045;-71
2023/06/11 04:47:43;;;;;;;14.90;12.73;;;;;;;12.94;100.00;98781.00;4156353;28;20681;-71
2023/06/11 04:49:44;;;;;;;15.32;12.63;;;;;;;13.05;100.00;98783.84;4156574;28;20046;-71
2023/06/11 04:51:47;;;;;;;13.30;11.90;;;;;;;13.12;100.00;98786.66;4156335;28;20045;-71
2023/06/11 04:53:47;;;;;;;18.95;12.95;;;;;;;13.18;100.00;98779.56;4155684;28;20045;-71
2023/06/11 04:55:50;;;;;;;14.60;12.40;;;;;;;13.21;100.00;98779.59;4156255;28;20056;-71
2023/06/11 04:57:50;;;;;;;14.65;11.93;;;;;;;13.29;100.00;98783.22;4156532;28;20043;-71
2023/06/11 04:59:50;;;;;;;18.45;13.60;;;;;;;13.36;100.00;98791.59;4156669;28;20140;-71
2023/06/11 05:01:53;;;;;;;13.48;12.07;;;;;;;13.46;100.00;98784.50;4156078;28;20523;-71
2023/06/11 05:03:53;;;;;;;14.95;13.25;;;;;;;13.54;100.00;98785.34;4155179;28;20046;-71
2023/06/11 05:05:54;;;;;;;14.07;12.55;;;;;;;13.60;100.00;98783.78;4156560;28;20350;-71
2023/06/11 05:07:54;;;;;;;14.38;12.52;;;;;;;13.70;100.00;98788.59;4156191;28;20037;-71
2023/06/11 05:09:55;;;;;;;15.38;13.73;;;;;;;13.79;100.00;98789.00;4156012;28;20041;-71
2023/06/11 05:11:55;;;;;;;14.52;12.55;;;;;;;13.88;100.00;98785.84;4156196;28;20308;-71
2023/06/11 05:13:55;;;;;;;14.45;12.60;;;;;;;13.98;100.00;98790.66;4155631;28;20489;-71
2023/06/11 05:15:57;;;;;;;16.83;12.50;;;;;;;14.05;100.00;98782.34;4156338;28;20062;-71
2023/06/11 05:18:00;;;;;;;13.23;11.85;;;;;;;14.17;100.00;98778.41;4155963;28;20042;-72
2023/06/11 05:20:00;;;;;;;;;;;;;;;14.28;100.00;98784.75;4157074;28;20095;-71
2023/06/11 05:22:00;;;;;;;16.30;12.83;;;;;;;14.34;100.00;98789.56;4156160;28;19921;-71
2023/06/11 05:24:07;;;;;;;14.60;12.90;;;;;;;14.47;100.00;98789.97;4155152;28;20273;-71
2023/06/11 05:26:12;;;;;;;17.40;14.02;;;;;;;14.54;100.00;98784.41;4155877;28;20060;-71
2023/06/11 05:28:14;;;;;;;13.98;12.57;;;;;;;14.62;100.00;98776.88;4155161;28;20088;-71
2023/06/11 05:30:15;;;;;;;15.93;13.10;;;;;;;14.70;100.00;98786.03;4156680;28;20397;-71
2023/06/11 05:32:15;;;;;;;31.50;13.65;;;;;;;14.80;100.00;98779.63;4156117;28;20029;-71
2023/06/11 05:34:15;;;;;;;15.18;13.25;;;;;;;14.90;100.00;98778.84;4156832;28;20049;-71
2023/06/11 05:36:16;;;;;;;16.20;13.45;;;;;;;15.00;100.00;98775.25;4156112;28;20457;-71
2023/06/11 05:38:17;;;;;;;15.07;13.48;;;;;;;15.13;100.00;98778.41;4156249;28;20037;-71
2023/06/11 05:40:17;;;;;;;16.98;13.63;;;;;;;15.24;100.00;98789.56;4156132;28;20115;-71
2023/06/11 05:42:17;;;;;;;18.23;14.27;;;;;;;15.30;100.00;98780.34;4155433;28;20474;-71
2023/06/11 05:44:18;;;;;;;20.02;14.65;;;;;;;15.40;100.00;98787.13;4156031;28;20465;-71
2023/06/11 05:46:18;;;;;;;16.05;13.77;;;;;;;15.47;100.00;98789.88;4155828;28;20021;-71
2023/06/11 05:48:18;;;;;;;17.20;13.85;;;;;;;15.54;100.00;98783.47;4155511;28;20532;-71
2023/06/11 05:50:19;;;;;;;16.85;14.20;;;;;;;15.63;100.00;98787.44;4157335;28;20037;-71
2023/06/11 05:52:19;;;;;;;16.77;14.88;;;;;;;15.75;100.00;98796.59;4154533;28;20385;-71
2023/06/11 05:54:20;;;;;;;20.80;14.88;;;;;;;15.82;100.00;98794.56;4155005;28;20351;-71
2023/06/11 05:56:21;;;;;;;16.33;14.45;;;;;;;15.86;100.00;98789.75;4156321;28;20060;-71
2023/06/11 05:58:22;;;;;;;16.53;13.50;;;;;;;15.92;100.00;98795.72;4159041;28;20040;-71
2023/06/11 06:00:22;;;;;;;14.80;12.73;;;;;;;15.99;100.00;98793.69;4158305;28;20484;-71
2023/06/11 06:02:23;;;;;;;15.15;13.55;;;;;;;16.14;100.00;98799.19;4157975;28;20421;-71
2023/06/11 06:04:23;;;;;;;16.38;13.18;;;;;;;16.23;100.00;98793.94;4158610;28;20124;-71
2023/06/11 06:06:23;;;;;;;21.08;17.92;;;;;;;16.30;100.00;98799.47;4158596;28;20520;-71
2023/06/11 06:08:25;;;;;;;23.45;16.45;;;;;;;16.29;100.00;98795.09;4158466;28;20114;-71
2023/06/11 06:10:26;;;;;;;21.27;17.58;;;;;;;16.32;100.00;98788.69;4156597;28;20050;-71
2023/06/11 06:12:26;;;;;;;17.95;16.02;;;;;;;16.28;100.00;98788.72;4158169;28;20120;-71
2023/06/11 06:14:26;;;;;;;21.70;16.90;;;;;;;16.33;100.00;98792.28;4157675;28;20366;-72
2023/06/11 06:16:27;;;;;;;20.63;16.98;;;;;;;16.39;100.00;98794.25;4158068;28;20033;-71
2023/06/11 06:18:28;;;;;;;18.80;16.00;;;;;;;16.44;100.00;98788.22;4158467;28;20049;-71
2023/06/11 06:20:29;;;;;;;18.35;15.68;;;;;;;16.54;100.00;98783.75;4158274;28;20053;-71
2023/06/11 06:22:29;;;;;;;18.15;14.52;;;;;;;16.61;100.00;98800.44;4157630;28;20512;-71
2023/06/11 06:24:30;;;;;;;17.77;14.85;;;;;;;16.71;100.00;98793.22;4158421;28;20678;-71
2023/06/11 06:26:30;;;;;;;18.40;16.45;;;;;;;16.84;100.00;98797.13;4158828;28;20048;-71
2023/06/11 06:28:33;;;;;;;19.13;17.10;;;;;;;16.95;100.00;98799.81;4157819;28;20053;-72
2023/06/11 06:30:34;;;;;;;20.77;17.33;;;;;;;16.96;100.00;98796.59;4157865;28;20510;-71
2023/06/11 06:32:38;;;;;;;20.75;17.13;;;;;;;16.95;100.00;98802.59;4158203;28;20045;-71
2023/06/11 06:34:39;;;;;;;17.15;14.85;;;;;;;16.93;100.00;98797.44;4157288;28;20493;-71
2023/06/11 06:36:39;;;;;;;18.45;16.55;;;;;;;16.93;100.00;98793.84;4158147;28;20038;-71
2023/06/11 06:38:40;;;;;;;18.23;16.33;;;;;;;16.94;100.00;98801.00;4158143;28;20037;-71
2023/06/11 06:40:40;;;;;;;19.55;17.38;;;;;;;16.96;100.00;98799.38;4157183;28;20073;-71
2023/06/11 06:42:41;;;;;;;22.67;16.67;;;;;;;17.04;100.00;98805.72;4156488;28;20092;-71
2023/06/11 06:44:41;;;;;;;20.40;15.90;;;;;;;17.12;100.00;98799.63;4157663;28;20476;-71
2023/06/11 06:46:41;;;;;;;21.33;18.15;;;;;;;17.27;100.00;98803.09;4158112;28;20073;-71
2023/06/11 06:48:41;;;;;;;19.65;17.50;;;;;;;17.36;100.00;98800.59;4157837;28;20097;-71
2023/06/11 06:50:42;;;;;;;18.88;16.67;;;;;;;17.42;100.00;98798.94;4158028;28;20060;-71
2023/06/11 06:52:42;;;;;;;18.10;16.23;;;;;;;17.49;100.00;98797.28;4157101;28;20135;-71
2023/06/11 06:54:43;;;;;;;21.63;17.40;;;;;;;17.55;100.00;98806.81;4158004;28;20037;-72
2023/06/11 06:56:43;;;;;;;20.60;17.08;;;;;;;17.61;100.00;98802.31;4157615;28;20049;-71
2023/06/11 06:58:43;;;;;;;18.60;16.63;;;;;;;17.67;100.00;98801.44;4157353;28;20100;-71
2023/06/11 07:00:45;;;;;;;19.13;16.63;;;;;;;17.78;100.00;98811.75;4157741;28;20053;-71
2023/06/11 07:02:45;;;;;;;18.58;16.27;;;;;;;17.83;100.00;98802.91;4156599;28;20187;-71
2023/06/11 07:04:46;;;;;;;18.15;15.77;;;;;;;17.85;100.00;98806.84;4155651;28;20590;-71
2023/06/11 07:06:46;;;;;;;17.30;14.88;;;;;;;17.91;100.00;98805.19;4157240;28;20429;-71
2023/06/11 07:08:46;;;;;;;17.13;15.40;;;;;;;17.99;100.00;98810.69;4156599;28;20064;-71
2023/06/11 07:10:53;;;;;;;21.15;15.68;;;;;;;18.00;100.00;98806.69;4157137;28;20437;-71
2023/06/11 07:12:53;;;;;;;20.33;15.55;;;;;;;18.08;100.00;98808.97;4156070;28;20112;-71
2023/06/11 07:14:53;;;;;;;16.40;14.70;;;;;;;18.17;100.00;98808.44;4156734;28;20068;-71
2023/06/11 07:16:54;;;;;;;16.60;14.73;;;;;;;18.21;100.00;98798.78;4157670;28;20033;-71
2023/06/11 07:18:54;;;;;;;13.90;12.40;;;;;;;18.29;100.00;98810.69;4157642;28;20041;-71
2023/06/11 07:20:54;;;;;;;17.15;15.35;;;;;;;18.39;100.00;98815.34;4157053;28;20303;-71
2023/06/11 07:22:55;;;;;;;15.90;14.20;;;;;;;18.47;100.00;98804.81;4157166;28;20034;-71
2023/06/11 07:24:56;;;;;;;16.67;14.90;;;;;;;18.55;100.00;98803.50;4157335;28;20120;-71
2023/06/11 07:26:56;;;;;;;15.57;13.98;;;;;;;18.67;100.00;98807.75;4157437;28;20045;-72
2023/06/11 07:28:56;;;;;;;16.88;14.10;;;;;;;18.76;100.00;98813.59;4158245;28;20068;-72
2023/06/11 07:30:56;;;;;;;14.70;13.00;;;;;;;18.82;100.00;98822.31;4157296;28;20080;-72
2023/06/11 07:32:58;;;;;;;16.55;11.55;;;;;;;18.85;97.26;98819.44;4156929;28;20126;-71
2023/06/11 07:34:58;;;;;;;12.88;11.50;;;;;;;18.95;96.65;98814.88;4157690;28;20462;-71
2023/06/11 07:36:58;;;;;;;14.20;12.00;;;;;;;19.05;97.56;98814.72;4157345;28;20069;-71
2023/06/11 07:38:59;;;;;;;12.23;11.02;;;;;;;19.17;95.54;98813.31;4157844;28;20133;-72
2023/06/11 07:41:01;;;;;;;12.70;11.00;;;;;;;19.25;96.73;98811.94;4154566;28;20033;-72
2023/06/11 07:43:01;;;;;;;12.70;10.88;;;;;;;19.33;98.23;98807.00;4157110;28;20037;-72
2023/06/11 07:45:02;;;;;;;16.38;12.23;;;;;;;19.39;96.23;98813.72;4156612;28;20086;-71
2023/06/11 07:47:02;;;;;;;13.38;11.65;;;;;;;19.49;95.96;98806.31;4157317;28;20072;-71
2023/06/11 07:49:03;;;;;;;12.40;11.10;;;;;;;19.54;96.54;98809.41;4157588;28;20336;-72
2023/06/11 07:51:03;;;;;;;13.05;11.75;;;;;;;19.55;95.86;98807.41;4157500;28;20401;-72
2023/06/11 07:53:04;;;;;;;14.90;11.88;;;;;;;19.60;96.26;98810.50;4155435;28;20107;-72
2023/06/11 07:55:05;;;;;;;12.13;10.88;;;;;;;19.69;96.30;98803.53;4157064;28;20041;-72
2023/06/11 07:57:06;;;;;;;12.52;11.23;;;;;;;19.85;98.68;98806.41;4106358;28;20050;-72
2023/06/11 07:59:06;;;;;;;14.43;12.90;;;;;;;19.97;97.50;98808.59;4153152;28;20044;-72
2023/06/11 08:01:07;;;;;;;12.40;11.15;;;;;;;20.03;97.12;98809.66;4156097;28;20037;-71
2023/06/11 08:03:08;;;;;;;13.25;11.45;;;;;;;20.08;96.17;98797.13;4156523;28;20060;-72
2023/06/11 08:05:11;;;;;;;15.32;12.35;;;;;;;20.16;96.20;98804.94;4157136;28;20131;-72
2023/06/11 08:07:12;;;;;;;13.77;11.23;;;;;;;20.23;93.29;98800.41;4156212;28;20128;-72
2023/06/11 08:09:12;;;;;;;12.00;10.77;;;;;;;20.29;91.58;98799.47;4148922;28;20077;-71
2023/06/11 08:11:13;;;;;;;15.55;10.68;;;;;;;20.43;91.94;98793.53;4149750;28;20049;-72
2023/06/11 08:13:14;;;;;;;11.55;9.90;;;;;;;20.52;92.41;98786.50;4147824;28;20053;-72
2023/06/11 08:15:14;;;;;;;13.13;11.50;;;;;;;20.63;92.37;98787.84;4146542;28;20050;-72
2023/06/11 08:17:15;;;;;;;11.02;9.88;;;;;;;20.81;90.83;98789.44;4148431;28;20041;-71
2023/06/11 08:19:15;;;;;;;13.00;9.95;;;;;;;20.96;87.69;98787.84;4151169;28;20072;-72
2023/06/11 08:21:16;;;;;;;13.43;10.23;;;;;;;20.99;86.91;98781.34;4150665;28;20071;-72
2023/06/11 08:23:16;;;;;;;13.45;10.07;;;;;;;21.09;86.31;98788.69;4149384;28;20046;-72
2023/06/11 08:25:16;;;;;;;12.13;9.93;;;;;;;21.18;87.14;98779.63;4153189;28;20061;-72
2023/06/11 08:27:17;;;;;;;11.65;9.80;;;;;;;21.20;85.84;98780.78;4151554;28;20038;-72
2023/06/11 08:29:17;;;;;;;10.23;9.13;;;;;;;21.26;83.11;98783.84;4148475;28;20080;-72
2023/06/11 08:31:18;;;;;;;13.40;9.43;;;;;;;21.28;82.65;98778.59;4150469;28;20088;-72
2023/06/11 08:33:18;;;;;;;11.38;9.45;;;;;;;21.35;80.47;98783.22;4147213;28;20080;-72
2023/06/11 08:35:20;;;;;;;9.02;7.97;;;;;;;21.36;75.32;98776.41;4147712;28;20052;-72
2023/06/11 08:37:21;;;;;;;9.20;7.93;;;;;;;21.45;77.32;98777.31;4151582;28;20053;-72
2023/06/11 08:39:22;;;;;;;8.70;6.95;;;;;;;21.53;73.40;98772.28;4150750;28;20762;-72
2023/06/11 08:41:23;;;;;;;10.57;6.88;;;;;;;21.55;73.99;98776.22;4151826;28;20490;-71
2023/06/11 08:43:24;;;;;;;8.95;6.35;;;;;;;21.57;66.93;98775.78;4148540;28;20037;-71
2023/06/11 08:45:24;;;;;;;7.68;5.05;;;;;;;21.69;68.86;98774.25;4147757;28;20065;-71
2023/06/11 08:47:25;;;;;;;6.05;5.45;;;;;;;21.84;62.73;98772.59;4158703;28;20399;-71
2023/06/11 08:49:27;;;;;;;6.25;5.15;;;;;;;21.94;63.90;98770.72;4154013;28;20046;-71
2023/06/11 08:51:33;;;;;;;6.72;4.95;;;;;;;22.08;64.41;98770.31;4149113;28;20159;-71
2023/06/11 08:53:34;;;;;;;6.85;4.82;;;;;;;22.17;61.14;98764.78;4153839;28;20052;-71
2023/06/11 08:55:35;;;;;;;6.88;4.85;;;;;;;22.37;61.48;98765.38;4153364;28;20045;-71
2023/06/11 08:57:36;;;;;;;9.32;5.03;;;;;;;22.50;59.72;98767.38;4154826;28;20048;-71
2023/06/11 08:59:36;;;;;;;9.10;5.03;;;;;;;22.57;60.31;98764.34;4153042;28;20049;-71
2023/06/11 09:01:38;;;;;;;7.53;5.30;;;;;;;22.70;61.13;98765.13;4156163;28;20171;-71
2023/06/11 09:03:39;;;;;;;8.38;5.18;;;;;;;22.73;59.67;98761.41;4155520;28;20068;-71
2023/06/11 09:05:39;;;;;;;7.80;5.22;;;;;;;22.77;60.73;98767.72;4156209;28;20053;-71
2023/06/11 09:07:50;;;;;;;9.48;5.10;;;;;;;22.74;58.32;98756.53;4155922;28;20048;-71
2023/06/11 09:10:09;;;;;;;7.05;5.60;;;;;;;22.83;59.58;98760.25;4154898;28;20080;-71
2023/06/11 09:12:10;;;;;;;12.60;5.70;;;;;;;22.89;57.75;98757.69;4155773;28;20053;-71
2023/06/11 09:14:11;;;;;;;6.40;5.65;;;;;;;22.89;57.37;98760.50;4155570;28;20057;-71